Time;durP1;ratioP1;P1;durP2;ratioP2;P2;SDS_P1;SDS_P2;PMS_P1;PMS_P2;Temp;Humidity;BMP_temperature;BMP_pressure;BME280_temperature;BME280_humidity;BME280_pressure;Samples;Min_cycle;Max_cycle;Signal;HPM_P1;HPM_P2
2023/12/12 00:00:34;;;;;;;13.67;4.90;;;;;;;;;;4881099;29;20105;-64
2023/12/12 00:03:00;;;;;;;16.27;4.27;;;;;;;;;;4881215;29;20053;-64
2023/12/12 00:05:26;;;;;;;16.23;4.60;;;;;;;;;;4874911;29;20056;-64
2023/12/12 00:07:52;;;;;;;12.37;4.37;;;;;;;;;;4876113;29;20056;-64
2023/12/12 00:10:20;;;;;;;18.10;4.33;;;;;;;;;;4875731;29;20416;-64
2023/12/12 00:12:46;;;;;;;13.30;4.70;;;;;;;;;;4875294;29;20049;-64
2023/12/12 00:15:12;;;;;;;17.10;5.03;;;;;;;;;;4876046;29;20052;-64
2023/12/12 00:17:39;;;;;;;16.03;4.27;;;;;;;;;;4875082;29;20053;-64
2023/12/12 00:20:07;;;;;;;15.57;4.40;;;;;;;;;;4882008;29;20243;-64
2023/12/12 00:22:33;;;;;;;17.43;5.37;;;;;;;;;;4875199;29;20052;-64
2023/12/12 00:24:59;;;;;;;14.60;5.10;;;;;;;;;;4873407;29;20564;-64
2023/12/12 00:27:25;;;;;;;18.70;4.73;;;;;;;;;;4874468;29;20053;-65
2023/12/12 00:29:52;;;;;;;13.73;5.03;;;;;;;;;;4875689;29;20041;-64
2023/12/12 00:32:18;;;;;;;12.90;5.60;;;;;;;;;;4879235;29;20056;-64
2023/12/12 00:34:44;;;;;;;11.80;5.27;;;;;;;;;;4875333;29;20049;-64
2023/12/12 00:37:10;;;;;;;15.10;5.43;;;;;;;;;;4875681;29;20049;-64
2023/12/12 00:39:42;;;;;;;16.63;7.40;;;;;;;;;;4875175;29;20049;-64
2023/12/12 00:42:08;;;;;;;16.30;6.37;;;;;;;;;;4875224;29;20564;-64
2023/12/12 00:44:34;;;;;;;19.93;6.60;;;;;;;;;;4874781;29;20140;-65
2023/12/12 00:47:00;;;;;;;14.10;5.70;;;;;;;;;;4874015;29;20359;-65
2023/12/12 00:49:26;;;;;;;18.73;5.83;;;;;;;;;;4875000;29;20057;-64
2023/12/12 00:51:53;;;;;;;15.60;6.67;;;;;;;;;;4875463;29;20113;-64
2023/12/12 00:54:19;;;;;;;20.43;7.57;;;;;;;;;;4874966;29;20069;-65
2023/12/12 00:56:47;;;;;;;26.70;8.37;;;;;;;;;;4874813;29;20552;-65
2023/12/12 00:59:13;;;;;;;15.67;6.90;;;;;;;;;;4874043;29;20096;-65
2023/12/12 01:01:39;;;;;;;24.50;8.67;;;;;;;;;;4875259;29;20082;-64
2023/12/12 01:04:07;;;;;;;17.43;6.80;;;;;;;;;;4874450;29;20461;-64
2023/12/12 01:06:33;;;;;;;26.97;10.23;;;;;;;;;;4874941;29;20068;-64
2023/12/12 01:08:59;;;;;;;18.67;6.93;;;;;;;;;;4874785;29;20049;-64
2023/12/12 01:11:25;;;;;;;27.80;8.30;;;;;;;;;;4874391;29;20523;-64
2023/12/12 01:13:51;;;;;;;16.77;6.87;;;;;;;;;;4874857;29;20045;-65
2023/12/12 01:16:18;;;;;;;24.77;9.10;;;;;;;;;;4874854;29;20045;-65
2023/12/12 01:18:44;;;;;;;24.57;7.73;;;;;;;;;;4874334;29;20053;-64
2023/12/12 01:21:10;;;;;;;19.77;7.20;;;;;;;;;;4874904;29;20049;-65
2023/12/12 01:23:49;;;;;;;27.10;9.53;;;;;;;;;;4873948;29;20504;-64
2023/12/12 01:26:15;;;;;;;23.37;7.90;;;;;;;;;;4874241;29;20053;-65
2023/12/12 01:28:41;;;;;;;26.17;7.33;;;;;;;;;;4874176;29;20053;-64
2023/12/12 01:31:07;;;;;;;22.30;7.90;;;;;;;;;;4874106;29;20419;-65
2023/12/12 01:33:33;;;;;;;19.43;7.47;;;;;;;;;;4872203;29;20711;-64
2023/12/12 01:35:59;;;;;;;21.83;9.27;;;;;;;;;;4874728;29;20048;-64
2023/12/12 01:38:25;;;;;;;23.93;8.37;;;;;;;;;;4874299;29;20048;-64
2023/12/12 01:40:53;;;;;;;18.53;8.93;;;;;;;;;;4874119;29;20157;-64
2023/12/12 01:43:29;;;;;;;21.23;9.23;;;;;;;;;;4874153;29;20417;-64
2023/12/12 01:45:56;;;;;;;28.60;9.53;;;;;;;;;;4872976;29;20121;-65
2023/12/12 01:48:22;;;;;;;22.07;10.47;;;;;;;;;;4874385;29;20061;-64
2023/12/12 01:50:50;;;;;;;24.90;10.03;;;;;;;;;;4874113;29;20040;-64
2023/12/12 01:53:19;;;;;;;33.13;11.83;;;;;;;;;;4873984;29;20056;-64
2023/12/12 01:55:45;;;;;;;31.90;11.73;;;;;;;;;;4874319;29;20048;-65
2023/12/12 01:58:11;;;;;;;33.00;11.50;;;;;;;;;;4873897;29;20096;-64
2023/12/12 02:00:37;;;;;;;34.03;11.47;;;;;;;;;;4873748;29;20457;-65
2023/12/12 02:03:03;;;;;;;30.10;12.27;;;;;;;;;;4873278;29;20097;-65
2023/12/12 02:05:29;;;;;;;29.77;11.60;;;;;;;;;;4873895;29;20045;-65
2023/12/12 02:07:57;;;;;;;36.37;14.43;;;;;;;;;;4873797;29;20060;-64
2023/12/12 02:10:23;;;;;;;40.87;14.30;;;;;;;;;;4873615;29;20059;-65
2023/12/12 02:12:49;;;;;;;37.23;15.40;;;;;;;;;;4874475;29;20045;-65
2023/12/12 02:15:15;;;;;;;44.67;16.67;;;;;;;;;;4873379;29;20796;-65
2023/12/12 02:17:41;;;;;;;39.03;16.30;;;;;;;;;;4878457;29;20527;-65
2023/12/12 02:20:08;;;;;;;45.00;15.83;;;;;;;;;;4878226;29;20056;-65
2023/12/12 02:22:34;;;;;;;50.87;16.13;;;;;;;;;;4877411;29;20476;-65
2023/12/12 02:25:00;;;;;;;45.50;15.77;;;;;;;;;;4877174;29;20053;-64
2023/12/12 02:27:26;;;;;;;57.13;17.40;;;;;;;;;;4876992;29;20052;-65
2023/12/12 02:29:53;;;;;;;53.40;17.93;;;;;;;;;;4877837;29;20416;-65
2023/12/12 02:32:19;;;;;;;49.80;16.53;;;;;;;;;;4876232;29;20049;-65
2023/12/12 02:34:45;;;;;;;57.70;18.37;;;;;;;;;;4876998;29;20058;-65
2023/12/12 02:37:11;;;;;;;46.07;17.17;;;;;;;;;;4877155;29;20049;-65
2023/12/12 02:39:37;;;;;;;55.13;19.13;;;;;;;;;;4877183;29;20156;-65
2023/12/12 02:42:03;;;;;;;59.60;20.30;;;;;;;;;;4877424;29;20052;-64
2023/12/12 02:44:29;;;;;;;66.33;20.30;;;;;;;;;;4877480;29;20047;-65
2023/12/12 02:46:55;;;;;;;76.00;21.83;;;;;;;;;;4877405;29;20515;-65
2023/12/12 02:49:22;;;;;;;67.77;19.93;;;;;;;;;;4876828;29;20087;-65
2023/12/12 02:51:48;;;;;;;67.30;21.33;;;;;;;;;;4877206;29;20484;-64
2023/12/12 02:54:14;;;;;;;66.03;21.13;;;;;;;;;;4877480;29;20092;-65
2023/12/12 02:56:40;;;;;;;67.00;21.50;;;;;;;;;;4874948;29;20334;-65
2023/12/12 02:59:06;;;;;;;78.93;21.33;;;;;;;;;;4877106;29;20419;-64
2023/12/12 03:01:32;;;;;;;88.50;23.40;;;;;;;;;;4877236;29;20100;-65
2023/12/12 03:03:58;;;;;;;71.77;21.07;;;;;;;;;;4876607;29;20056;-65
2023/12/12 03:06:24;;;;;;;112.70;27.30;;;;;;;;;;4876918;29;20124;-65
2023/12/12 03:08:50;;;;;;;77.67;24.23;;;;;;;;;;4877049;29;20508;-64
2023/12/12 03:11:16;;;;;;;124.27;29.50;;;;;;;;;;4877077;29;20087;-64
2023/12/12 03:13:42;;;;;;;102.80;27.33;;;;;;;;;;4876756;29;20499;-64
2023/12/12 03:16:08;;;;;;;118.77;29.57;;;;;;;;;;4876512;29;20049;-64
2023/12/12 03:18:34;;;;;;;83.53;24.13;;;;;;;;;;4877213;29;20077;-64
2023/12/12 03:21:00;;;;;;;71.67;24.00;;;;;;;;;;4876998;29;20077;-65
2023/12/12 03:23:26;;;;;;;115.17;26.73;;;;;;;;;;4876208;29;20507;-64
2023/12/12 03:25:52;;;;;;;93.80;27.73;;;;;;;;;;4876760;29;20500;-65
2023/12/12 03:28:18;;;;;;;101.23;28.83;;;;;;;;;;4875155;29;20087;-65
2023/12/12 03:30:44;;;;;;;159.13;36.27;;;;;;;;;;4875711;29;20468;-65
2023/12/12 03:33:10;;;;;;;144.80;35.40;;;;;;;;;;4876027;29;20072;-64
2023/12/12 03:35:36;;;;;;;156.03;35.00;;;;;;;;;;4876289;29;20541;-64
2023/12/12 03:38:03;;;;;;;239.37;45.53;;;;;;;;;;4875084;29;20579;-64
2023/12/12 03:40:29;;;;;;;87.77;25.10;;;;;;;;;;4876189;29;20078;-64
2023/12/12 03:42:55;;;;;;;163.10;34.63;;;;;;;;;;4876495;29;20049;-64
2023/12/12 03:45:21;;;;;;;80.47;24.30;;;;;;;;;;4876564;29;20088;-65
2023/12/12 03:47:47;;;;;;;61.87;19.47;;;;;;;;;;4875681;29;20053;-64
2023/12/12 03:50:13;;;;;;;101.30;30.07;;;;;;;;;;4875937;29;20419;-64
2023/12/12 03:52:40;;;;;;;94.67;26.07;;;;;;;;;;4876226;29;20051;-64
2023/12/12 03:55:07;;;;;;;186.83;36.80;;;;;;;;;;4876061;29;20087;-65
2023/12/12 03:57:33;;;;;;;119.83;28.87;;;;;;;;;;4876391;29;20048;-65
2023/12/12 03:59:59;;;;;;;119.73;29.23;;;;;;;;;;4875661;29;20053;-64
2023/12/12 04:02:25;;;;;;;69.17;23.13;;;;;;;;;;4875824;29;20228;-64
2023/12/12 04:04:51;;;;;;;144.20;32.13;;;;;;;;;;4875207;29;20045;-65
2023/12/12 04:07:17;;;;;;;80.93;26.90;;;;;;;;;;4875515;29;20393;-64
2023/12/12 04:09:44;;;;;;;70.20;21.70;;;;;;;;;;4876339;29;20087;-64
2023/12/12 04:12:10;;;;;;;88.90;25.27;;;;;;;;;;4875008;29;20088;-65
2023/12/12 04:14:36;;;;;;;63.83;18.53;;;;;;;;;;4876215;29;20081;-65
2023/12/12 04:17:03;;;;;;;60.67;19.60;;;;;;;;;;4875668;29;20419;-65
2023/12/12 04:19:29;;;;;;;95.87;24.37;;;;;;;;;;4876099;29;20424;-65
2023/12/12 04:21:55;;;;;;;77.37;23.20;;;;;;;;;;4875546;29;20117;-65
2023/12/12 04:24:21;;;;;;;153.73;34.13;;;;;;;;;;4875313;29;20084;-65
2023/12/12 04:26:47;;;;;;;127.50;30.77;;;;;;;;;;4875357;29;20053;-65
2023/12/12 04:29:13;;;;;;;115.93;29.27;;;;;;;;;;4875683;29;20432;-64
2023/12/12 04:31:39;;;;;;;121.87;29.63;;;;;;;;;;4875695;29;20049;-64
2023/12/12 04:34:05;;;;;;;151.07;35.00;;;;;;;;;;4875176;29;20049;-65
2023/12/12 04:36:33;;;;;;;92.33;26.20;;;;;;;;;;4875344;29;20045;-65
2023/12/12 04:38:59;;;;;;;54.90;19.30;;;;;;;;;;4874111;29;20274;-65
2023/12/12 04:41:25;;;;;;;66.93;20.73;;;;;;;;;;4874954;29;20068;-65
2023/12/12 04:43:51;;;;;;;61.83;20.33;;;;;;;;;;4874783;29;20056;-65
2023/12/12 04:46:20;;;;;;;82.97;24.57;;;;;;;;;;4874939;29;20053;-65
2023/12/12 04:48:46;;;;;;;117.13;31.30;;;;;;;;;;4875396;29;20052;-65
2023/12/12 04:51:12;;;;;;;136.10;33.47;;;;;;;;;;4874836;29;20053;-65
2023/12/12 04:53:38;;;;;;;114.03;32.30;;;;;;;;;;4874798;29;20059;-65
2023/12/12 04:56:05;;;;;;;159.90;38.37;;;;;;;;;;4875303;29;20053;-65
2023/12/12 04:58:31;;;;;;;169.80;38.83;;;;;;;;;;4874596;29;20052;-64
2023/12/12 05:00:57;;;;;;;146.00;33.13;;;;;;;;;;4875948;29;20496;-65
2023/12/12 05:03:23;;;;;;;143.00;32.73;;;;;;;;;;4874909;29;20049;-65
2023/12/12 05:05:49;;;;;;;190.43;41.43;;;;;;;;;;4875455;29;20048;-65
2023/12/12 05:08:15;;;;;;;164.20;39.20;;;;;;;;;;4875114;29;20528;-65
2023/12/12 05:10:41;;;;;;;151.03;38.00;;;;;;;;;;4874364;29;20052;-65
2023/12/12 05:13:07;;;;;;;122.77;33.20;;;;;;;;;;4874049;29;20056;-65
2023/12/12 05:15:33;;;;;;;137.83;34.17;;;;;;;;;;4874715;29;20048;-65
2023/12/12 05:18:00;;;;;;;168.80;40.00;;;;;;;;;;4874304;29;20092;-65
2023/12/12 05:20:26;;;;;;;165.57;39.50;;;;;;;;;;4874835;29;20444;-65
2023/12/12 05:22:52;;;;;;;71.47;23.80;;;;;;;;;;4874623;29;20164;-65
2023/12/12 05:25:18;;;;;;;97.80;29.13;;;;;;;;;;4874277;29;20053;-65
2023/12/12 05:27:44;;;;;;;138.20;36.50;;;;;;;;;;4874739;29;20131;-65
2023/12/12 05:30:12;;;;;;;146.87;37.83;;;;;;;;;;4874058;29;20052;-65
2023/12/12 05:32:39;;;;;;;163.30;39.33;;;;;;;;;;4874165;29;20057;-65
2023/12/12 05:35:07;;;;;;;155.07;38.57;;;;;;;;;;4874364;29;20404;-65
2023/12/12 05:37:33;;;;;;;146.63;37.40;;;;;;;;;;4874521;29;20052;-65
2023/12/12 05:39:59;;;;;;;196.67;44.80;;;;;;;;;;4873764;29;20052;-65
2023/12/12 05:42:26;;;;;;;169.97;43.17;;;;;;;;;;4874336;29;20089;-65
2023/12/12 05:44:52;;;;;;;179.97;43.20;;;;;;;;;;4874880;29;20057;-65
2023/12/12 05:47:18;;;;;;;188.53;43.97;;;;;;;;;;4873191;29;20036;-64
2023/12/12 05:49:44;;;;;;;185.33;43.40;;;;;;;;;;4873380;29;20088;-65
2023/12/12 05:52:10;;;;;;;105.87;34.03;;;;;;;;;;4873494;29;20136;-65
2023/12/12 05:54:36;;;;;;;325.67;61.70;;;;;;;;;;4874184;29;20060;-65
2023/12/12 05:57:03;;;;;;;331.00;60.43;;;;;;;;;;4872692;29;20048;-65
2023/12/12 05:59:29;;;;;;;261.10;52.03;;;;;;;;;;4873283;29;20057;-65
2023/12/12 06:01:54;;;;;;;283.80;55.77;;;;;;;;;;4874117;29;20524;-65
2023/12/12 06:04:20;;;;;;;251.17;56.60;;;;;;;;;;4872441;29;20061;-65
2023/12/12 06:06:46;;;;;;;233.27;52.07;;;;;;;;;;4873938;29;20519;-65
2023/12/12 06:09:13;;;;;;;208.03;49.43;;;;;;;;;;4874341;29;20192;-65
2023/12/12 06:11:39;;;;;;;183.40;48.97;;;;;;;;;;4873630;29;20141;-65
2023/12/12 06:14:05;;;;;;;170.43;45.77;;;;;;;;;;4874235;29;20056;-64
2023/12/12 06:16:31;;;;;;;190.53;50.70;;;;;;;;;;4872451;29;20049;-65
2023/12/12 06:18:57;;;;;;;285.23;61.70;;;;;;;;;;4874249;29;20074;-65
2023/12/12 06:21:23;;;;;;;198.57;52.33;;;;;;;;;;4873465;29;20128;-65
2023/12/12 06:23:49;;;;;;;182.77;51.07;;;;;;;;;;4873825;29;20263;-65
2023/12/12 06:26:16;;;;;;;158.27;49.63;;;;;;;;;;4873689;29;20053;-65
2023/12/12 06:28:43;;;;;;;164.53;49.50;;;;;;;;;;4872227;29;20591;-65
2023/12/12 06:31:09;;;;;;;189.20;56.03;;;;;;;;;;4874173;29;20056;-65
2023/12/12 06:33:35;;;;;;;133.17;46.70;;;;;;;;;;4873910;29;20048;-65
2023/12/12 06:36:01;;;;;;;146.67;48.60;;;;;;;;;;4869956;29;20045;-65
2023/12/12 06:38:28;;;;;;;169.73;53.70;;;;;;;;;;4873699;29;20064;-64
2023/12/12 06:40:54;;;;;;;194.03;56.50;;;;;;;;;;4866900;29;20064;-65
2023/12/12 06:43:20;;;;;;;324.23;69.33;;;;;;;;;;4874166;29;20064;-65
2023/12/12 06:45:48;;;;;;;206.77;54.73;;;;;;;;;;4873369;29;20048;-65
2023/12/12 06:48:15;;;;;;;171.43;52.40;;;;;;;;;;4873531;29;20056;-65
2023/12/12 06:50:41;;;;;;;154.27;50.43;;;;;;;;;;4873143;29;20602;-65
2023/12/12 06:53:07;;;;;;;154.07;49.43;;;;;;;;;;4873378;29;20113;-65
2023/12/12 06:55:33;;;;;;;217.67;61.00;;;;;;;;;;4874149;29;20052;-65
2023/12/12 06:57:59;;;;;;;204.67;58.73;;;;;;;;;;4873441;29;20166;-65
2023/12/12 07:00:25;;;;;;;170.97;54.67;;;;;;;;;;4872870;29;20100;-65
2023/12/12 07:02:51;;;;;;;204.20;57.97;;;;;;;;;;4876138;29;20060;-65
2023/12/12 07:05:18;;;;;;;176.73;54.63;;;;;;;;;;4877266;29;20116;-65
2023/12/12 07:07:44;;;;;;;187.10;58.10;;;;;;;;;;4877036;29;20124;-65
2023/12/12 07:10:11;;;;;;;190.57;58.23;;;;;;;;;;4877607;29;20053;-65
2023/12/12 07:12:37;;;;;;;234.87;63.53;;;;;;;;;;4876728;29;20107;-65
2023/12/12 07:15:03;;;;;;;156.23;53.70;;;;;;;;;;4877088;29;20049;-65
2023/12/12 07:17:29;;;;;;;176.57;56.17;;;;;;;;;;4877297;29;20045;-65
2023/12/12 07:19:55;;;;;;;215.43;59.77;;;;;;;;;;4876836;29;20053;-65
2023/12/12 07:22:21;;;;;;;210.33;60.87;;;;;;;;;;4876811;29;20056;-65
2023/12/12 07:24:47;;;;;;;235.87;63.37;;;;;;;;;;4876660;29;20041;-65
2023/12/12 07:27:13;;;;;;;354.17;78.87;;;;;;;;;;4876437;29;20083;-65
2023/12/12 07:29:39;;;;;;;182.00;51.63;;;;;;;;;;4875631;29;20089;-65
2023/12/12 07:32:06;;;;;;;502.73;95.20;;;;;;;;;;4876794;29;20045;-64
2023/12/12 07:34:32;;;;;;;317.80;75.97;;;;;;;;;;4876716;29;20155;-65
2023/12/12 07:36:58;;;;;;;196.07;55.37;;;;;;;;;;4876606;29;20060;-65
2023/12/12 07:39:24;;;;;;;337.07;70.97;;;;;;;;;;4876049;29;20053;-65
2023/12/12 07:41:50;;;;;;;201.30;54.57;;;;;;;;;;4876223;29;20124;-65
2023/12/12 07:44:16;;;;;;;588.63;100.60;;;;;;;;;;4876259;29;20063;-64
2023/12/12 07:46:42;;;;;;;417.07;85.47;;;;;;;;;;4875943;29;20060;-65
2023/12/12 07:49:09;;;;;;;317.20;72.70;;;;;;;;;;4875786;29;20049;-65
2023/12/12 07:51:35;;;;;;;244.00;66.50;;;;;;;;;;4875993;29;20085;-65
2023/12/12 07:54:03;;;;;;;261.60;68.37;;;;;;;;;;4875739;29;20131;-65
2023/12/12 07:56:29;;;;;;;303.37;73.03;;;;;;;;;;4868373;29;20602;-65
2023/12/12 07:58:55;;;;;;;260.57;72.00;;;;;;;;;;4875928;29;20093;-66
2023/12/12 08:01:22;;;;;;;251.03;73.67;;;;;;;;;;4876145;29;20131;-65
2023/12/12 08:03:48;;;;;;;253.10;72.13;;;;;;;;;;4875926;29;20101;-65
2023/12/12 08:06:14;;;;;;;329.93;84.13;;;;;;;;;;4875337;29;20052;-65
2023/12/12 08:08:40;;;;;;;264.40;74.73;;;;;;;;;;4875949;29;20065;-65
2023/12/12 08:11:12;;;;;;;304.67;81.90;;;;;;;;;;4875959;29;20081;-65
2023/12/12 08:13:38;;;;;;;285.30;82.90;;;;;;;;;;4873801;29;20092;-65
2023/12/12 08:16:05;;;;;;;313.07;85.70;;;;;;;;;;4875794;29;20057;-66
2023/12/12 08:18:31;;;;;;;481.30;108.53;;;;;;;;;;4875249;29;20059;-66
2023/12/12 08:20:58;;;;;;;451.27;103.90;;;;;;;;;;4875862;29;20049;-65
2023/12/12 08:23:24;;;;;;;555.20;112.70;;;;;;;;;;4875049;29;20118;-66
2023/12/12 08:25:50;;;;;;;1020.20;160.93;;;;;;;;;;4875676;29;20512;-66
2023/12/12 08:28:16;;;;;;;939.90;151.10;;;;;;;;;;4874952;29;20604;-65
2023/12/12 08:30:43;;;;;;;932.70;151.20;;;;;;;;;;4875109;29;20057;-65
2023/12/12 08:33:09;;;;;;;754.57;135.93;;;;;;;;;;4874622;29;20056;-65
2023/12/12 08:35:36;;;;;;;667.83;119.17;;;;;;;;;;4874489;29;20048;-66
2023/12/12 08:38:02;;;;;;;764.23;140.03;;;;;;;;;;4875120;29;20049;-65
2023/12/12 08:40:28;;;;;;;987.93;164.47;;;;;;;;;;4875286;29;20052;-66
2023/12/12 08:42:54;;;;;;;970.97;162.80;;;;;;;;;;4872360;29;20056;-65
2023/12/12 08:45:20;;;;;;;725.03;125.47;;;;;;;;;;4874966;29;20049;-65
2023/12/12 08:47:46;;;;;;;856.20;148.83;;;;;;;;;;4874769;29;20057;-65
2023/12/12 08:50:12;;;;;;;609.83;110.67;;;;;;;;;;4875439;29;20038;-65
2023/12/12 08:52:38;;;;;;;766.03;140.97;;;;;;;;;;4872970;29;20163;-65
2023/12/12 08:55:05;;;;;;;923.53;157.33;;;;;;;;;;4878923;29;20071;-65
2023/12/12 08:57:31;;;;;;;894.07;151.20;;;;;;;;;;4878867;29;20048;-65
2023/12/12 08:59:57;;;;;;;835.20;152.87;;;;;;;;;;4874347;29;20049;-65
2023/12/12 09:02:23;;;;;;;871.23;163.30;;;;;;;;;;4875181;29;20059;-65
2023/12/12 09:04:49;;;;;;;752.50;144.70;;;;;;;;;;4874501;29;20512;-65
2023/12/12 09:07:15;;;;;;;606.80;124.73;;;;;;;;;;4873894;29;20041;-65
2023/12/12 09:09:42;;;;;;;550.93;115.70;;;;;;;;;;4874429;29;20456;-66
2023/12/12 09:12:08;;;;;;;761.97;148.30;;;;;;;;;;4874573;29;20045;-65
2023/12/12 09:14:34;;;;;;;696.73;143.93;;;;;;;;;;4873136;29;20133;-65
2023/12/12 09:17:00;;;;;;;700.67;137.33;;;;;;;;;;4878193;29;20052;-65
2023/12/12 09:19:26;;;;;;;568.80;123.33;;;;;;;;;;4873328;29;20049;-65
2023/12/12 09:21:54;;;;;;;655.23;134.40;;;;;;;;;;4879019;29;20499;-65
2023/12/12 09:24:20;;;;;;;528.33;115.67;;;;;;;;;;4877628;29;20056;-65
2023/12/12 09:26:46;;;;;;;544.40;124.53;;;;;;;;;;4870885;29;20092;-65
2023/12/12 09:29:12;;;;;;;693.37;143.27;;;;;;;;;;4872177;29;20053;-65
2023/12/12 09:31:38;;;;;;;695.83;141.37;;;;;;;;;;4872676;29;20051;-65
2023/12/12 09:34:04;;;;;;;680.83;140.50;;;;;;;;;;4874458;29;20051;-65
2023/12/12 09:36:30;;;;;;;719.53;146.73;;;;;;;;;;4873924;29;20037;-65
2023/12/12 09:38:57;;;;;;;524.23;109.03;;;;;;;;;;4872816;29;20150;-65
2023/12/12 09:41:24;;;;;;;684.30;143.57;;;;;;;;;;4873107;29;20056;-66
2023/12/12 09:43:50;;;;;;;627.17;133.03;;;;;;;;;;4873908;29;20472;-66
2023/12/12 09:46:17;;;;;;;926.80;171.23;;;;;;;;;;4874761;29;20045;-65
2023/12/12 09:48:47;;;;;;;596.07;132.27;;;;;;;;;;4873511;29;20052;-65
2023/12/12 09:51:17;;;;;;;761.03;153.23;;;;;;;;;;4873938;29;20053;-65
2023/12/12 09:53:46;;;;;;;629.20;131.97;;;;;;;;;;4873507;29;20132;-65
2023/12/12 09:56:15;;;;;;;870.03;172.87;;;;;;;;;;4873229;29;20059;-65
2023/12/12 09:58:41;;;;;;;864.20;163.23;;;;;;;;;;4873538;29;20478;-65
2023/12/12 10:01:08;;;;;;;550.83;122.27;;;;;;;;;;4875354;29;20546;-66
2023/12/12 10:03:34;;;;;;;723.40;142.63;;;;;;;;;;4870716;29;20047;-65
2023/12/12 10:06:05;;;;;;;602.17;128.63;;;;;;;;;;4871364;29;20427;-65
2023/12/12 10:08:31;;;;;;;537.07;116.70;;;;;;;;;;4873817;29;20136;-65
2023/12/12 10:10:57;;;;;;;381.33;92.63;;;;;;;;;;4879690;29;20469;-65
2023/12/12 10:13:23;;;;;;;590.97;127.23;;;;;;;;;;4878208;29;20437;-65
2023/12/12 10:15:49;;;;;;;480.30;107.73;;;;;;;;;;4871579;29;20057;-65
2023/12/12 10:18:16;;;;;;;442.67;105.50;;;;;;;;;;4874158;29;20041;-66
2023/12/12 10:20:42;;;;;;;511.50;116.70;;;;;;;;;;4875664;29;20080;-65
2023/12/12 10:23:08;;;;;;;385.70;97.83;;;;;;;;;;4873471;29;20065;-65
2023/12/12 10:25:36;;;;;;;356.87;92.97;;;;;;;;;;4873519;29;20049;-65
2023/12/12 10:28:03;;;;;;;497.37;113.30;;;;;;;;;;4871820;29;20053;-65
2023/12/12 10:30:29;;;;;;;530.17;117.20;;;;;;;;;;4872876;29;20056;-66
2023/12/12 10:32:55;;;;;;;448.87;101.97;;;;;;;;;;4871920;29;20461;-65
2023/12/12 10:35:22;;;;;;;386.30;93.77;;;;;;;;;;4873693;29;20047;-65
2023/12/12 10:37:52;;;;;;;348.17;86.23;;;;;;;;;;4873928;29;20053;-65
2023/12/12 10:40:21;;;;;;;383.10;92.63;;;;;;;;;;4876165;29;20500;-65
2023/12/12 10:42:48;;;;;;;383.70;89.90;;;;;;;;;;4877622;29;20053;-65
2023/12/12 10:45:14;;;;;;;370.27;88.53;;;;;;;;;;4877067;29;20040;-66
2023/12/12 10:47:47;;;;;;;343.40;85.23;;;;;;;;;;4877679;29;20423;-65
2023/12/12 10:50:15;;;;;;;261.10;70.35;;;;;;;;;;4876786;29;20511;-65
2023/12/12 10:52:44;;;;;;;235.10;64.47;;;;;;;;;;4877785;29;20059;-65
2023/12/12 10:55:11;;;;;;;234.57;67.07;;;;;;;;;;4877469;29;20053;-65
2023/12/12 10:57:38;;;;;;;234.03;63.67;;;;;;;;;;4876854;29;20085;-65
2023/12/12 11:00:11;;;;;;;263.83;68.27;;;;;;;;;;4882522;29;20052;-65
2023/12/12 11:02:38;;;;;;;240.33;64.37;;;;;;;;;;4877261;29;20056;-65
2023/12/12 11:05:05;;;;;;;253.10;63.40;;;;;;;;;;4876419;29;20077;-65
2023/12/12 11:07:31;;;;;;;230.47;60.43;;;;;;;;;;4877351;29;20077;-65
2023/12/12 11:09:57;;;;;;;230.67;60.83;;;;;;;;;;4875802;29;20128;-65
2023/12/12 11:12:24;;;;;;;214.97;56.60;;;;;;;;;;4876866;29;20045;-65
2023/12/12 11:14:51;;;;;;;172.63;52.10;;;;;;;;;;4876605;29;20053;-65
2023/12/12 11:17:19;;;;;;;183.30;51.83;;;;;;;;;;4879057;29;20571;-65
2023/12/12 11:19:45;;;;;;;197.80;53.30;;;;;;;;;;4875332;29;20041;-65
2023/12/12 11:22:31;;;;;;;220.33;58.23;;;;;;;;;;4875125;29;20049;-65
2023/12/12 11:25:01;;;;;;;178.87;51.80;;;;;;;;;;4875316;29;20061;-65
2023/12/12 11:27:28;;;;;;;189.63;52.43;;;;;;;;;;4876402;29;20049;-65
2023/12/12 11:29:55;;;;;;;195.00;54.03;;;;;;;;;;4875847;29;20056;-65
2023/12/12 11:32:24;;;;;;;201.07;53.80;;;;;;;;;;4876386;29;20132;-65
2023/12/12 11:34:51;;;;;;;183.83;52.37;;;;;;;;;;4876357;29;20136;-65
2023/12/12 11:37:17;;;;;;;173.10;49.83;;;;;;;;;;4875434;29;20049;-65
2023/12/12 11:39:45;;;;;;;197.60;52.50;;;;;;;;;;4876144;29;20490;-65
2023/12/12 11:42:18;;;;;;;163.43;48.83;;;;;;;;;;4876106;29;20589;-65
2023/12/12 11:44:46;;;;;;;174.55;50.65;;;;;;;;;;4876471;29;20551;-65
2023/12/12 11:47:26;;;;;;;146.63;46.07;;;;;;;;;;4875505;29;20584;-64
2023/12/12 11:50:11;;;;;;;167.53;47.60;;;;;;;;;;4874523;29;20148;-65
2023/12/12 11:52:37;;;;;;;194.00;51.10;;;;;;;;;;4875985;29;20045;-64
2023/12/12 11:55:03;;;;;;;156.70;44.97;;;;;;;;;;4875688;29;20617;-65
2023/12/12 11:57:29;;;;;;;171.90;49.57;;;;;;;;;;4876213;29;20045;-64
2023/12/12 11:59:56;;;;;;;183.60;47.00;;;;;;;;;;4875636;29;20049;-64
2023/12/12 12:02:22;;;;;;;181.00;49.77;;;;;;;;;;4875489;29;20044;-65
2023/12/12 12:04:48;;;;;;;151.70;46.47;;;;;;;;;;4875953;29;20052;-65
2023/12/12 12:07:14;;;;;;;162.90;46.87;;;;;;;;;;4875548;29;20056;-64
2023/12/12 12:09:41;;;;;;;194.80;50.33;;;;;;;;;;4875533;29;20053;-64
2023/12/12 12:12:10;;;;;;;139.27;43.60;;;;;;;;;;4875734;29;20064;-65
2023/12/12 12:14:36;;;;;;;148.50;45.83;;;;;;;;;;4875610;29;20176;-65
2023/12/12 12:17:03;;;;;;;161.23;45.47;;;;;;;;;;4875785;29;20045;-65
2023/12/12 12:19:31;;;;;;;131.60;41.07;;;;;;;;;;4875762;29;20049;-64
2023/12/12 12:22:05;;;;;;;161.47;46.47;;;;;;;;;;4875479;29;20140;-64
2023/12/12 12:24:31;;;;;;;162.52;45.47;;;;;;;;;;4875648;29;20056;-64
2023/12/12 12:26:57;;;;;;;155.57;45.10;;;;;;;;;;4875556;29;20053;-64
2023/12/12 12:29:24;;;;;;;155.30;46.23;;;;;;;;;;4874813;29;20055;-64
2023/12/12 12:31:50;;;;;;;126.77;42.13;;;;;;;;;;4875500;29;20204;-64
2023/12/12 12:34:18;;;;;;;158.53;46.43;;;;;;;;;;4874900;29;20053;-64
2023/12/12 12:36:46;;;;;;;127.30;42.23;;;;;;;;;;4875411;29;20419;-65
2023/12/12 12:39:14;;;;;;;142.40;43.90;;;;;;;;;;4874919;29;20136;-64
2023/12/12 12:41:40;;;;;;;136.43;40.93;;;;;;;;;;4875031;29;20092;-65
2023/12/12 12:44:07;;;;;;;148.40;43.77;;;;;;;;;;4875366;29;20085;-64
2023/12/12 12:46:33;;;;;;;137.87;43.67;;;;;;;;;;4875125;29;20055;-64
2023/12/12 12:48:59;;;;;;;128.70;41.53;;;;;;;;;;4874430;29;20057;-64
2023/12/12 12:51:25;;;;;;;125.73;40.80;;;;;;;;;;4874909;29;20435;-64
2023/12/12 12:53:51;;;;;;;131.93;42.80;;;;;;;;;;4875127;29;20548;-64
2023/12/12 12:56:18;;;;;;;116.60;39.70;;;;;;;;;;4874222;29;20167;-64
2023/12/12 12:58:44;;;;;;;108.57;39.23;;;;;;;;;;4874868;29;20097;-64
2023/12/12 13:01:10;;;;;;;107.90;38.73;;;;;;;;;;4874815;29;20049;-64
2023/12/12 13:03:36;;;;;;;104.77;38.23;;;;;;;;;;4875084;29;20108;-64
2023/12/12 13:06:02;;;;;;;104.33;38.90;;;;;;;;;;4874360;29;20492;-64
2023/12/12 13:08:30;;;;;;;113.83;38.40;;;;;;;;;;4874508;29;20508;-65
2023/12/12 13:10:56;;;;;;;113.60;39.00;;;;;;;;;;4875122;29;20377;-64
2023/12/12 13:13:22;;;;;;;134.23;40.47;;;;;;;;;;4874592;29;20044;-64
2023/12/12 13:15:48;;;;;;;111.97;40.77;;;;;;;;;;4874209;29;20041;-64
2023/12/12 13:18:17;;;;;;;114.43;36.67;;;;;;;;;;4874615;29;20128;-64
2023/12/12 13:20:45;;;;;;;105.40;37.83;;;;;;;;;;4874447;29;20064;-64
2023/12/12 13:23:11;;;;;;;121.33;38.90;;;;;;;;;;4874343;29;20080;-64
2023/12/12 13:25:37;;;;;;;99.23;38.00;;;;;;;;;;4874645;29;20048;-64
2023/12/12 13:28:04;;;;;;;107.60;37.33;;;;;;;;;;4873952;29;20060;-64
2023/12/12 13:30:30;;;;;;;120.47;39.07;;;;;;;;;;4874444;29;20045;-64
2023/12/12 13:32:56;;;;;;;114.00;38.90;;;;;;;;;;4874421;29;20520;-64
2023/12/12 13:35:22;;;;;;;109.13;38.70;;;;;;;;;;4874063;29;20052;-64
2023/12/12 13:37:49;;;;;;;116.10;39.50;;;;;;;;;;4873628;29;20045;-64
2023/12/12 13:40:15;;;;;;;125.80;41.67;;;;;;;;;;4874499;29;20037;-64
2023/12/12 13:42:41;;;;;;;112.37;40.07;;;;;;;;;;4874148;29;20132;-64
2023/12/12 13:45:07;;;;;;;124.77;41.33;;;;;;;;;;4873485;29;20173;-64
2023/12/12 13:47:36;;;;;;;138.57;43.57;;;;;;;;;;4873766;29;20128;-64
2023/12/12 13:50:03;;;;;;;140.40;44.77;;;;;;;;;;4874256;29;20048;-63
2023/12/12 13:52:31;;;;;;;136.40;41.20;;;;;;;;;;4874217;29;20045;-64
2023/12/12 13:54:58;;;;;;;137.37;42.27;;;;;;;;;;4874176;29;20059;-64
2023/12/12 13:57:24;;;;;;;125.50;43.00;;;;;;;;;;4874877;29;20626;-64
2023/12/12 13:59:50;;;;;;;124.27;39.97;;;;;;;;;;4874550;29;20082;-64
2023/12/12 14:02:17;;;;;;;129.67;43.27;;;;;;;;;;4874588;29;20134;-64
2023/12/12 14:04:43;;;;;;;139.13;42.60;;;;;;;;;;4874690;29;20128;-64